Time;durP1;ratioP1;P1;durP2;ratioP2;P2;SDS_P1;SDS_P2;PMS_P1;PMS_P2;Temp;Humidity;BMP_temperature;BMP_pressure;BME280_temperature;BME280_humidity;BME280_pressure;Samples;Min_cycle;Max_cycle;Signal;HPM_P1;HPM_P2
2022/08/08 00:01:39;;;;;;;96.45;60.90;;;27.20;99.90;;;;;;4995390;28;20025;-67
2022/08/08 00:04:16;;;;;;;96.80;63.65;;;27.20;99.90;;;;;;4995277;28;20023;-67
2022/08/08 00:06:55;;;;;;;90.70;60.70;;;27.20;99.90;;;;;;4995500;28;20682;-67
2022/08/08 00:09:42;;;;;;;84.90;55.38;;;27.20;99.90;;;;;;4995543;28;20162;-67
2022/08/08 00:12:12;;;;;;;75.43;54.72;;;27.20;99.90;;;;;;4994978;28;20027;-67
2022/08/08 00:14:49;;;;;;;89.10;62.70;;;27.20;99.90;;;;;;4995384;28;20489;-67
2022/08/08 00:17:20;;;;;;;93.15;67.63;;;27.30;99.90;;;;;;4995076;28;20034;-67
2022/08/08 00:19:53;;;;;;;85.18;60.58;;;27.30;99.90;;;;;;4995141;28;20137;-67
2022/08/08 00:22:27;;;;;;;83.43;58.65;;;27.30;99.90;;;;;;4994975;28;20109;-67
2022/08/08 00:25:07;;;;;;;84.00;57.22;;;27.20;99.90;;;;;;4995032;28;20042;-66
2022/08/08 00:27:36;;;;;;;90.65;59.03;;;27.20;99.90;;;;;;4994747;28;20080;-67
2022/08/08 00:30:03;;;;;;;79.40;57.45;;;27.40;99.90;;;;;;4994859;28;20034;-67
2022/08/08 00:32:34;;;;;;;86.85;56.05;;;27.40;99.90;;;;;;4995104;28;20050;-67
2022/08/08 00:35:19;;;;;;;75.70;55.00;;;27.40;99.90;;;;;;4994942;28;20090;-66
2022/08/08 00:37:55;;;;;;;72.38;50.13;;;27.50;99.90;;;;;;4994788;28;20143;-67
2022/08/08 00:41:02;;;;;;;74.63;49.13;;;27.50;99.90;;;;;;4994602;28;20062;-68
2022/08/08 00:43:52;;;;;;;74.05;49.65;;;27.60;99.90;;;;;;4934708;29;20533;-68
2022/08/08 00:46:28;;;;;;;69.57;48.03;;;27.60;99.90;;;;;;4934606;29;20486;-67
2022/08/08 00:49:15;;;;;;;72.63;48.85;;;27.70;99.90;;;;;;4934423;29;20122;-66
2022/08/08 00:51:46;;;;;;;71.70;46.85;;;27.80;99.90;;;;;;4877695;29;20045;-67
2022/08/08 00:54:35;;;;;;;70.47;45.53;;;27.90;99.90;;;;;;4878078;29;20041;-67
2022/08/08 00:57:32;;;;;;;72.00;46.97;;;28.00;99.90;;;;;;4878143;29;20120;-67
2022/08/08 01:00:19;;;;;;;66.13;42.72;;;28.00;99.90;;;;;;4877948;29;20616;-67
2022/08/08 01:03:26;;;;;;;57.72;41.78;;;28.10;99.90;;;;;;4840754;29;20101;-66
2022/08/08 01:06:04;;;;;;;72.68;45.42;;;28.10;99.90;;;;;;4804411;29;20042;-66
2022/08/08 01:08:59;;;;;;;65.50;44.85;;;28.20;99.90;;;;;;4804331;29;20043;-67
2022/08/08 01:11:57;;;;;;;64.85;45.85;;;28.30;99.90;;;;;;4804010;29;20039;-67
2022/08/08 01:14:44;;;;;;;64.30;41.50;;;28.40;99.90;;;;;;4804200;29;20030;-67
2022/08/08 01:17:28;;;;;;;62.22;44.53;;;28.50;99.90;;;;;;4804046;29;20483;-67
2022/08/08 01:20:16;;;;;;;64.03;43.30;;;28.60;99.90;;;;;;4804189;29;20035;-67
2022/08/08 01:23:12;;;;;;;67.32;43.33;;;28.60;99.90;;;;;;4804089;29;20042;-68
2022/08/08 01:26:10;;;;;;;69.75;41.63;;;28.60;99.90;;;;;;4804043;29;20060;-67
2022/08/08 01:28:45;;;;;;;57.45;39.17;;;28.70;99.90;;;;;;4822346;29;20589;-67
2022/08/08 01:31:23;;;;;;;52.38;37.53;;;28.70;99.90;;;;;;4822586;29;20069;-67
2022/08/08 01:33:57;;;;;;;52.60;36.42;;;28.80;99.90;;;;;;4822437;29;20130;-67
2022/08/08 01:36:45;;;;;;;52.58;35.08;;;28.90;99.90;;;;;;4822282;29;20038;-67
2022/08/08 01:39:40;;;;;;;55.85;37.35;;;28.90;99.90;;;;;;4822474;29;20034;-67
2022/08/08 01:42:28;;;;;;;50.53;35.70;;;29.00;99.90;;;;;;4864120;29;20028;-67
2022/08/08 01:44:59;;;;;;;48.65;33.05;;;29.10;99.90;;;;;;4915260;29;20044;-67
2022/08/08 01:47:36;;;;;;;51.25;31.80;;;29.10;99.90;;;;;;4914804;29;20423;-67
2022/08/08 01:50:08;;;;;;;54.63;32.90;;;29.20;99.90;;;;;;4914751;29;20028;-67
2022/08/08 01:52:44;;;;;;;53.30;28.67;;;29.30;99.90;;;;;;4950269;28;20042;-67
2022/08/08 01:55:27;;;;;;;44.13;28.33;;;29.30;99.90;;;;;;4993799;28;20042;-67
2022/08/08 01:58:13;;;;;;;41.42;29.27;;;29.40;99.90;;;;;;4993951;28;20034;-66
2022/08/08 02:00:53;;;;;;;55.13;30.17;;;29.30;99.90;;;;;;4993770;28;20037;-66
2022/08/08 02:03:25;;;;;;;44.75;29.73;;;29.30;99.90;;;;;;4995352;28;20053;-66
2022/08/08 02:06:07;;;;;;;45.88;30.23;;;29.40;99.90;;;;;;4997636;28;20018;-66
2022/08/08 02:08:41;;;;;;;46.10;29.30;;;29.50;99.90;;;;;;4997411;28;20034;-67
2022/08/08 02:11:08;;;;;;;40.13;30.75;;;29.50;99.90;;;;;;4997493;28;20085;-67
2022/08/08 02:13:50;;;;;;;47.38;30.20;;;29.60;99.90;;;;;;4997443;28;20033;-67
2022/08/08 02:16:17;;;;;;;55.00;29.73;;;29.70;99.90;;;;;;4997486;28;20029;-67
2022/08/08 02:18:55;;;;;;;44.15;29.77;;;29.70;99.90;;;;;;4997421;28;20034;-66
2022/08/08 02:24:37;;;;;;;40.97;27.05;;;29.70;99.90;;;;;;4997514;28;20479;-66
2022/08/08 02:27:10;;;;;;;38.13;27.00;;;29.90;99.90;;;;;;4996396;28;20393;-67
2022/08/08 02:29:36;;;;;;;;;;;30.00;99.90;;;;;;4997487;28;20052;-66
2022/08/08 02:32:09;;;;;;;37.35;27.17;;;30.00;99.90;;;;;;4997054;28;19987;-67
2022/08/08 02:34:58;;;;;;;39.38;25.95;;;30.00;99.90;;;;;;4997424;28;20029;-67
2022/08/08 02:37:33;;;;;;;43.33;29.02;;;30.00;99.90;;;;;;4996960;28;20405;-67
2022/08/08 02:40:08;;;;;;;41.05;25.73;;;30.00;99.90;;;;;;4997256;28;20101;-67
2022/08/08 02:42:44;;;;;;;37.33;25.90;;;29.90;99.90;;;;;;4997064;28;20022;-66
2022/08/08 02:45:47;;;;;;;42.70;24.58;;;29.90;99.90;;;;;;5002808;28;20041;-66
2022/08/08 02:48:18;;;;;;;71.35;48.08;;;30.00;99.90;;;;;;5016361;28;20040;-67
2022/08/08 02:51:13;;;;;;;39.33;23.92;;;30.10;99.90;;;;;;5016420;28;20014;-67
2022/08/08 02:54:09;;;;;;;29.15;22.17;;;30.10;99.90;;;;;;5016374;28;20026;-67
2022/08/08 02:56:37;;;;;;;27.73;20.10;;;30.20;99.90;;;;;;5016245;28;20099;-65
2022/08/08 02:59:32;;;;;;;36.75;20.65;;;30.30;99.90;;;;;;5016244;28;20101;-65
2022/08/08 03:02:27;;;;;;;31.08;22.58;;;30.40;99.90;;;;;;5016731;28;20029;-63
2022/08/08 03:05:11;;;;;;;29.30;21.42;;;30.50;99.90;;;;;;4999172;28;20081;-65
2022/08/08 03:08:17;;;;;;;30.08;19.38;;;30.40;99.90;;;;;;4996461;28;20069;-64
2022/08/08 03:11:05;;;;;;;33.92;23.17;;;30.30;99.90;;;;;;4996308;28;20362;-64
2022/08/08 03:13:52;;;;;;;26.30;17.98;;;30.30;99.90;;;;;;4996232;28;20376;-65
2022/08/08 03:16:36;;;;;;;29.75;21.25;;;30.40;99.90;;;;;;4936097;29;20036;-64
2022/08/08 03:19:31;;;;;;;25.20;18.85;;;30.40;99.90;;;;;;4921194;29;20540;-65
2022/08/08 03:22:37;;;;;;;25.42;17.70;;;30.40;99.90;;;;;;4936100;29;20056;-64
2022/08/08 03:25:06;;;;;;;26.10;18.90;;;30.40;99.90;;;;;;4840161;29;20044;-64
2022/08/08 03:27:39;;;;;;;26.27;19.38;;;30.50;99.90;;;;;;4840032;29;20038;-64
2022/08/08 03:30:09;;;;;;;26.50;18.13;;;30.50;99.90;;;;;;4841056;29;20069;-64
2022/08/08 03:35:24;;;;;;;28.55;19.40;;;30.40;99.90;;;;;;4841576;29;20054;-65
2022/08/08 03:37:51;;;;;;;27.55;16.80;;;30.40;99.90;;;;;;4848451;29;20033;-64
2022/08/08 03:40:20;;;;;;;24.05;16.80;;;30.50;99.90;;;;;;4850665;29;20196;-63
2022/08/08 03:42:47;;;;;;;29.88;17.45;;;30.50;99.90;;;;;;4842441;29;20041;-63
2022/08/08 03:45:19;;;;;;;31.77;18.38;;;30.40;99.90;;;;;;4842377;29;20041;-64
2022/08/08 03:47:57;;;;;;;25.92;17.45;;;30.50;99.90;;;;;;4843818;29;20044;-64
2022/08/08 03:50:25;;;;;;;28.70;18.52;;;30.50;99.90;;;;;;4849872;29;20553;-67
2022/08/08 03:52:53;;;;;;;22.63;17.63;;;30.60;99.90;;;;;;4847160;29;20386;-66
2022/08/08 03:55:21;;;;;;;22.38;16.48;;;30.70;99.90;;;;;;4860208;29;20494;-64
2022/08/08 03:57:52;;;;;;;21.05;15.88;;;30.90;99.90;;;;;;4860370;29;20045;-65
2022/08/08 04:00:21;;;;;;;21.08;17.38;;;31.00;99.90;;;;;;4860117;29;20040;-65
2022/08/08 04:03:08;;;;;;;25.92;17.77;;;31.20;99.90;;;;;;4970090;28;20049;-64
2022/08/08 04:05:37;;;;;;;20.13;16.27;;;31.40;99.90;;;;;;4991662;28;20046;-65
2022/08/08 04:08:05;;;;;;;20.38;15.45;;;31.70;99.90;;;;;;4993276;28;20062;-67
2022/08/08 04:10:34;;;;;;;30.17;15.32;;;31.60;99.90;;;;;;4993267;28;20045;-64
2022/08/08 04:13:02;;;;;;;22.10;15.50;;;31.70;99.90;;;;;;4993530;28;20026;-64
2022/08/08 04:15:28;;;;;;;21.77;14.95;;;31.70;99.90;;;;;;4993712;28;20018;-64
2022/08/08 04:17:55;;;;;;;21.08;15.65;;;31.70;99.90;;;;;;4997163;28;20026;-64
2022/08/08 04:20:21;;;;;;;23.85;16.55;;;31.80;99.90;;;;;;5003557;28;20030;-70
2022/08/08 04:22:48;;;;;;;21.67;15.45;;;31.80;99.90;;;;;;5010171;28;20030;-66
2022/08/08 04:25:14;;;;;;;20.92;15.55;;;31.90;99.90;;;;;;5012842;28;20472;-68
2022/08/08 04:27:41;;;;;;;22.10;16.27;;;31.90;99.90;;;;;;5011372;28;20079;-65
2022/08/08 04:30:08;;;;;;;25.30;18.27;;;31.90;99.90;;;;;;5013479;28;20030;-67
2022/08/08 04:32:35;;;;;;;31.35;18.70;;;32.00;99.90;;;;;;5014076;28;20099;-66
2022/08/08 04:35:01;;;;;;;19.73;16.10;;;32.10;99.90;;;;;;5013635;28;20100;-68
2022/08/08 04:37:28;;;;;;;19.42;14.35;;;32.20;99.90;;;;;;5012789;28;20195;-65
2022/08/08 04:39:55;;;;;;;22.13;15.82;;;32.30;99.90;;;;;;5012589;28;20448;-66
2022/08/08 04:42:24;;;;;;;24.17;16.00;;;32.20;99.90;;;;;;5012330;28;20018;-65
2022/08/08 04:44:54;;;;;;;20.92;15.80;;;32.10;99.90;;;;;;5012304;28;20025;-67
2022/08/08 04:47:21;;;;;;;21.30;14.77;;;32.00;99.90;;;;;;5012243;28;20071;-67
2022/08/08 04:49:47;;;;;;;28.35;20.45;;;32.10;99.90;;;;;;5011296;28;20030;-67
2022/08/08 04:52:14;;;;;;;35.28;24.23;;;32.00;99.90;;;;;;5013202;28;20385;-66
2022/08/08 04:54:40;;;;;;;25.50;18.00;;;31.90;99.90;;;;;;5013095;28;20048;-66
2022/08/08 04:57:07;;;;;;;20.10;15.82;;;32.00;99.90;;;;;;5013836;28;20022;-66
2022/08/08 04:59:34;;;;;;;25.38;16.10;;;32.10;99.90;;;;;;5014502;28;20133;-65
2022/08/08 05:02:00;;;;;;;21.77;15.57;;;32.00;99.90;;;;;;5014518;28;20033;-64
2022/08/08 05:04:27;;;;;;;21.00;15.52;;;31.90;99.90;;;;;;5014427;28;20037;-65
2022/08/08 05:06:53;;;;;;;19.95;14.93;;;32.00;99.90;;;;;;5014431;28;20570;-66
2022/08/08 05:09:20;;;;;;;28.42;16.00;;;32.10;99.90;;;;;;5014344;28;20428;-65
2022/08/08 05:11:48;;;;;;;18.90;14.60;;;32.10;99.90;;;;;;5014417;28;20497;-66
2022/08/08 05:14:16;;;;;;;17.27;15.35;;;32.20;99.80;;;;;;5014313;28;20022;-66
2022/08/08 05:16:43;;;;;;;18.45;14.90;;;32.30;99.90;;;;;;5014255;28;20056;-66
2022/08/08 05:19:11;;;;;;;18.98;15.15;;;32.20;99.10;;;;;;5014066;28;20018;-66
2022/08/08 05:21:41;;;;;;;43.97;33.70;;;32.20;99.30;;;;;;5014118;28;20025;-65
2022/08/08 05:24:09;;;;;;;23.88;15.77;;;32.20;99.90;;;;;;5013975;28;20068;-65
2022/08/08 05:26:37;;;;;;;23.02;14.50;;;32.30;99.90;;;;;;5013950;28;20036;-65
2022/08/08 05:29:13;;;;;;;18.73;13.73;;;32.50;99.20;;;;;;5013796;28;20045;-64
2022/08/08 05:31:40;;;;;;;15.57;13.73;;;32.70;98.20;;;;;;5013853;28;20033;-64
2022/08/08 05:34:19;;;;;;;51.13;41.28;;;32.80;97.60;;;;;;5013149;28;20026;-65
2022/08/08 05:36:48;;;;;;;33.10;23.33;;;32.70;97.80;;;;;;5011544;28;20036;-65
2022/08/08 05:39:20;;;;;;;23.38;19.15;;;32.60;97.60;;;;;;5009885;28;20028;-65
2022/08/08 05:41:50;;;;;;;21.83;15.40;;;32.60;97.90;;;;;;5013228;28;20022;-65
2022/08/08 05:44:20;;;;;;;32.33;23.25;;;32.60;98.00;;;;;;5013345;28;20026;-65
2022/08/08 05:46:51;;;;;;;28.40;21.50;;;32.60;98.00;;;;;;5013708;28;20033;-65
2022/08/08 05:49:18;;;;;;;47.53;37.20;;;32.70;98.50;;;;;;5013718;28;20025;-66
2022/08/08 05:51:46;;;;;;;20.15;15.30;;;32.90;98.70;;;;;;5013466;28;20417;-66
2022/08/08 05:54:13;;;;;;;16.25;13.70;;;33.00;97.70;;;;;;5013355;28;20072;-66
2022/08/08 05:56:41;;;;;;;18.67;13.32;;;33.00;96.70;;;;;;5013483;28;20080;-66
2022/08/08 05:59:16;;;;;;;19.23;13.82;;;32.80;97.00;;;;;;5013402;28;20080;-65
2022/08/08 06:01:44;;;;;;;28.67;14.45;;;32.70;97.50;;;;;;5013361;28;20022;-65
2022/08/08 06:04:11;;;;;;;151.20;115.80;;;32.70;96.40;;;;;;5013293;28;20504;-66
2022/08/08 06:06:41;;;;;;;47.17;37.25;;;32.80;96.50;;;;;;5013214;28;20037;-66
2022/08/08 06:09:09;;;;;;;69.30;46.00;;;33.00;96.60;;;;;;5011589;28;20492;-64
2022/08/08 06:11:36;;;;;;;18.52;13.00;;;32.90;96.50;;;;;;5011157;28;20098;-65
2022/08/08 06:14:05;;;;;;;17.73;13.45;;;32.70;94.80;;;;;;5004230;28;20025;-65
2022/08/08 06:16:36;;;;;;;17.33;12.70;;;32.70;95.60;;;;;;4991646;28;20030;-65
2022/08/08 06:19:04;;;;;;;15.75;11.40;;;32.90;95.70;;;;;;4991657;28;20718;-66
2022/08/08 06:21:31;;;;;;;19.90;13.27;;;33.00;95.60;;;;;;4991433;28;20027;-66
2022/08/08 06:24:00;;;;;;;18.90;12.93;;;33.10;95.50;;;;;;4991381;28;20029;-65
2022/08/08 06:26:35;;;;;;;18.27;13.55;;;33.20;95.20;;;;;;4993362;28;20023;-66
2022/08/08 06:29:04;;;;;;;15.77;11.95;;;33.30;95.10;;;;;;4993310;28;20058;-64
2022/08/08 06:31:35;;;;;;;14.02;11.68;;;33.40;94.00;;;;;;4993632;28;20027;-66
2022/08/08 06:34:07;;;;;;;18.13;13.37;;;33.40;93.80;;;;;;4993303;28;20023;-64
2022/08/08 06:36:40;;;;;;;19.35;13.27;;;33.30;93.90;;;;;;5003697;28;20503;-64
2022/08/08 06:39:09;;;;;;;16.23;12.32;;;33.20;94.50;;;;;;4992678;28;20053;-63
2022/08/08 06:41:48;;;;;;;16.50;11.95;;;33.40;92.50;;;;;;4993178;28;20433;-64
2022/08/08 06:44:17;;;;;;;14.82;12.38;;;33.50;92.00;;;;;;4993192;28;20019;-64
2022/08/08 06:46:44;;;;;;;16.45;13.02;;;33.50;92.10;;;;;;4992858;28;20095;-65
2022/08/08 06:49:11;;;;;;;15.68;13.10;;;33.60;92.30;;;;;;4994461;28;20018;-67
2022/08/08 06:51:38;;;;;;;18.77;12.20;;;33.70;92.30;;;;;;5007435;28;20038;-66
2022/08/08 06:54:06;;;;;;;14.05;11.82;;;33.70;92.00;;;;;;4996329;28;20109;-65
2022/08/08 06:56:34;;;;;;;18.42;12.15;;;33.80;90.90;;;;;;4996662;28;20101;-66
2022/08/08 06:59:01;;;;;;;19.42;13.23;;;33.90;90.30;;;;;;4996683;28;20030;-65
2022/08/08 07:01:36;;;;;;;14.63;11.98;;;33.90;91.00;;;;;;4996441;28;20019;-65
2022/08/08 07:04:08;;;;;;;16.38;11.52;;;33.90;91.20;;;;;;4996319;28;20109;-65
2022/08/08 07:06:41;;;;;;;13.25;10.77;;;33.90;90.50;;;;;;4996222;28;20024;-67
2022/08/08 07:09:14;;;;;;;13.90;11.63;;;33.90;90.90;;;;;;4996406;28;20499;-66
2022/08/08 07:11:42;;;;;;;14.90;10.95;;;33.90;90.40;;;;;;4996560;28;20022;-66
2022/08/08 07:14:15;;;;;;;18.50;12.75;;;33.80;90.30;;;;;;4996715;28;20370;-66
2022/08/08 07:17:09;;;;;;;20.00;14.13;;;33.90;90.50;;;;;;4979479;28;20473;-66
2022/08/08 07:19:58;;;;;;;43.13;30.85;;;33.90;91.40;;;;;;4996651;28;20036;-67
2022/08/08 07:22:36;;;;;;;56.05;37.85;;;34.00;91.10;;;;;;5006914;28;20022;-65
2022/08/08 07:25:04;;;;;;;42.45;25.85;;;34.10;90.90;;;;;;5015653;28;20144;-65
2022/08/08 07:27:41;;;;;;;23.80;16.67;;;34.10;90.90;;;;;;5009018;28;20023;-65
2022/08/08 07:30:08;;;;;;;21.77;14.50;;;34.00;90.00;;;;;;5000533;28;20106;-65
2022/08/08 07:32:36;;;;;;;30.55;18.50;;;34.10;90.50;;;;;;5001183;28;20044;-65
2022/08/08 07:35:05;;;;;;;23.42;15.77;;;34.20;88.60;;;;;;5000821;28;20022;-65
2022/08/08 07:37:34;;;;;;;19.10;11.95;;;34.20;87.20;;;;;;5000643;28;20108;-65
2022/08/08 07:40:01;;;;;;;15.77;11.23;;;34.20;85.40;;;;;;5000762;28;20030;-64
2022/08/08 07:42:29;;;;;;;19.65;13.57;;;34.20;85.90;;;;;;4999512;28;20038;-65
2022/08/08 07:44:56;;;;;;;142.82;100.95;;;34.20;87.40;;;;;;5015012;28;20425;-66
2022/08/08 07:47:23;;;;;;;51.20;38.30;;;34.20;87.80;;;;;;5014190;28;20041;-63
2022/08/08 07:49:49;;;;;;;74.45;56.42;;;34.00;87.90;;;;;;5014776;28;20033;-65
2022/08/08 07:52:16;;;;;;;47.08;37.80;;;34.00;87.10;;;;;;5015231;28;20387;-64
2022/08/08 07:55:04;;;;;;;48.05;36.08;;;33.90;88.60;;;;;;5014729;28;20181;-65
2022/08/08 07:57:50;;;;;;;102.50;77.95;;;34.10;90.10;;;;;;4952364;29;20062;-66
2022/08/08 08:00:18;;;;;;;26.33;20.25;;;34.10;88.20;;;;;;4894308;29;20460;-65
2022/08/08 08:02:54;;;;;;;18.30;15.10;;;34.20;85.40;;;;;;4895376;29;20042;-65
2022/08/08 08:05:23;;;;;;;33.78;21.25;;;34.20;84.20;;;;;;4895383;29;20524;-65
2022/08/08 08:08:02;;;;;;;32.17;22.67;;;34.20;86.90;;;;;;4894814;29;20084;-64
2022/08/08 08:10:30;;;;;;;41.17;23.55;;;34.50;87.30;;;;;;4895262;29;20379;-65
2022/08/08 08:13:26;;;;;;;54.88;41.55;;;34.60;85.70;;;;;;4890378;29;20028;-66
2022/08/08 08:15:59;;;;;;;52.58;36.75;;;34.70;85.10;;;;;;4820651;29;20046;-66
2022/08/08 08:18:36;;;;;;;28.02;19.83;;;34.70;83.00;;;;;;4820185;29;20046;-65
2022/08/08 08:21:03;;;;;;;28.33;22.60;;;34.60;82.60;;;;;;4821393;29;20044;-65
2022/08/08 08:23:30;;;;;;;24.80;17.00;;;34.50;82.40;;;;;;4820052;29;20058;-64
2022/08/08 08:25:56;;;;;;;27.60;19.60;;;34.50;82.70;;;;;;4821617;29;20121;-65
2022/08/08 08:28:24;;;;;;;20.10;13.02;;;34.40;82.50;;;;;;4818529;29;20102;-65
2022/08/08 08:30:52;;;;;;;19.02;14.18;;;34.50;81.10;;;;;;4821744;29;20064;-65
2022/08/08 08:33:19;;;;;;;18.90;13.18;;;34.30;82.30;;;;;;4821551;29;20065;-64
2022/08/08 08:35:45;;;;;;;20.20;15.35;;;34.10;83.20;;;;;;4858238;29;20049;-65
2022/08/08 08:38:12;;;;;;;41.72;21.80;;;34.10;83.20;;;;;;4921088;29;20119;-63
2022/08/08 08:40:39;;;;;;;24.05;16.13;;;34.00;83.90;;;;;;4933499;29;20106;-64
2022/08/08 08:43:07;;;;;;;25.35;16.58;;;33.90;83.80;;;;;;4934137;29;20035;-64
2022/08/08 08:45:36;;;;;;;20.08;13.80;;;33.90;83.90;;;;;;4947513;28;20029;-65
2022/08/08 08:48:03;;;;;;;15.95;11.02;;;33.90;83.40;;;;;;5013622;28;20018;-65
2022/08/08 08:50:30;;;;;;;17.15;12.23;;;33.80;81.30;;;;;;5013413;28;20052;-64
2022/08/08 08:53:01;;;;;;;17.60;13.32;;;33.80;81.80;;;;;;5012638;28;20267;-66
2022/08/08 08:55:29;;;;;;;20.65;13.93;;;33.80;82.30;;;;;;5009495;28;20360;-65
2022/08/08 08:57:57;;;;;;;25.35;13.68;;;33.90;85.40;;;;;;5011718;28;20061;-64
2022/08/08 09:00:24;;;;;;;18.13;13.02;;;34.00;82.70;;;;;;5011173;28;20468;-66
2022/08/08 09:02:51;;;;;;;18.50;12.07;;;33.90;81.70;;;;;;5011527;28;20377;-64
2022/08/08 09:05:21;;;;;;;16.83;12.77;;;33.90;82.80;;;;;;5011257;28;20029;-63
2022/08/08 09:07:52;;;;;;;18.50;14.05;;;34.00;82.40;;;;;;5010844;28;20033;-66
2022/08/08 09:10:21;;;;;;;28.35;15.90;;;33.90;83.50;;;;;;5012554;28;20020;-64
2022/08/08 09:12:49;;;;;;;24.13;14.57;;;33.90;82.40;;;;;;5012866;28;20093;-65
2022/08/08 09:15:16;;;;;;;19.67;15.00;;;33.90;83.40;;;;;;5011731;28;20022;-65
2022/08/08 09:17:44;;;;;;;19.80;12.57;;;33.90;82.40;;;;;;5008998;28;20469;-65
2022/08/08 09:20:11;;;;;;;27.60;18.42;;;33.90;82.20;;;;;;5041082;22;20101;-64
2022/08/08 09:22:37;;;;;;;23.67;16.77;;;33.90;81.40;;;;;;5050523;28;20048;-65
2022/08/08 09:25:05;;;;;;;25.48;15.70;;;33.80;81.50;;;;;;5050685;28;20029;-65
2022/08/08 09:27:32;;;;;;;23.92;15.57;;;33.70;82.20;;;;;;5051275;28;20040;-64
2022/08/08 09:30:04;;;;;;;26.40;16.40;;;33.80;82.00;;;;;;5051776;28;20047;-64
2022/08/08 09:32:36;;;;;;;25.42;13.50;;;33.80;81.20;;;;;;5050592;28;20090;-66
2022/08/08 09:35:06;;;;;;;22.08;14.82;;;33.80;81.80;;;;;;5051882;28;20028;-65
2022/08/08 09:37:44;;;;;;;23.45;16.17;;;33.80;81.10;;;;;;5050870;28;20037;-64
2022/08/08 09:40:16;;;;;;;22.77;14.73;;;33.70;81.90;;;;;;5050326;28;20028;-64
2022/08/08 09:42:46;;;;;;;20.65;14.77;;;33.70;81.50;;;;;;5052564;28;20033;-65
2022/08/08 09:45:20;;;;;;;24.38;16.90;;;33.60;82.20;;;;;;5052669;28;20139;-64
2022/08/08 09:47:48;;;;;;;20.27;14.98;;;33.60;84.30;;;;;;5052285;28;20029;-64
2022/08/08 09:50:19;;;;;;;21.27;14.77;;;33.50;85.60;;;;;;5052409;28;20034;-64
2022/08/08 09:52:51;;;;;;;25.50;15.27;;;33.40;86.00;;;;;;5052798;28;20075;-64
2022/08/08 09:55:18;;;;;;;25.00;16.48;;;33.40;86.30;;;;;;5052739;28;20131;-64
2022/08/08 09:57:47;;;;;;;26.30;16.98;;;33.40;86.20;;;;;;5052110;28;20032;-64
2022/08/08 10:00:18;;;;;;;24.45;15.82;;;33.50;85.70;;;;;;5051479;28;20024;-64
2022/08/08 10:02:48;;;;;;;108.60;81.22;;;33.40;85.50;;;;;;5050151;28;20029;-64
2022/08/08 10:05:18;;;;;;;31.77;21.88;;;33.40;84.70;;;;;;5050245;28;20025;-64
2022/08/08 10:08:03;;;;;;;25.63;17.13;;;33.30;87.20;;;;;;5051133;28;20391;-63
2022/08/08 10:10:31;;;;;;;23.73;18.42;;;33.10;89.40;;;;;;5052425;28;20013;-64
2022/08/08 10:12:58;;;;;;;34.03;21.33;;;33.00;90.00;;;;;;5050133;28;20033;-65
2022/08/08 10:15:27;;;;;;;29.38;19.98;;;33.00;90.60;;;;;;5051385;28;20112;-65
2022/08/08 10:17:55;;;;;;;31.60;16.83;;;32.90;90.60;;;;;;5051427;28;20387;-64
2022/08/08 10:20:22;;;;;;;28.90;19.20;;;32.80;90.90;;;;;;5051405;28;20280;-66
2022/08/08 10:23:03;;;;;;;44.33;33.22;;;32.80;91.30;;;;;;5048256;28;20478;-65
2022/08/08 10:25:30;;;;;;;24.73;18.10;;;32.70;91.10;;;;;;5055829;28;20051;-67
2022/08/08 10:27:57;;;;;;;25.40;17.80;;;32.60;91.40;;;;;;5055254;28;20348;-65
2022/08/08 10:30:25;;;;;;;33.47;19.50;;;32.50;91.80;;;;;;5055442;28;20033;-66
2022/08/08 10:32:54;;;;;;;33.88;18.65;;;32.40;92.20;;;;;;5053682;28;20047;-67
2022/08/08 10:35:25;;;;;;;26.70;19.10;;;32.20;92.30;;;;;;5053517;28;20053;-67
2022/08/08 10:37:58;;;;;;;21.42;17.48;;;32.20;92.50;;;;;;5054306;28;20107;-67
2022/08/08 10:40:26;;;;;;;23.80;16.85;;;32.10;92.90;;;;;;5054232;28;20095;-69
2022/08/08 10:42:59;;;;;;;30.20;18.42;;;32.10;92.70;;;;;;5055269;28;20422;-66
2022/08/08 10:45:26;;;;;;;27.50;18.60;;;32.20;92.70;;;;;;5055405;28;20096;-66
2022/08/08 10:48:03;;;;;;;24.20;17.02;;;32.10;92.70;;;;;;5055553;28;20119;-67
2022/08/08 10:50:34;;;;;;;25.73;18.70;;;32.00;92.80;;;;;;5051694;28;20017;-67
2022/08/08 10:53:05;;;;;;;25.33;18.70;;;32.00;93.40;;;;;;5055036;28;20024;-66
2022/08/08 10:55:32;;;;;;;30.38;21.52;;;32.00;93.70;;;;;;5043542;28;20263;-66
2022/08/08 10:58:03;;;;;;;31.60;21.52;;;32.00;93.30;;;;;;5053821;28;20052;-67
2022/08/08 11:00:30;;;;;;;33.55;21.73;;;31.90;93.40;;;;;;5052796;28;20044;-67
2022/08/08 11:03:09;;;;;;;45.03;27.45;;;31.90;93.70;;;;;;5055002;28;20017;-68
2022/08/08 11:05:43;;;;;;;47.13;26.38;;;31.90;93.50;;;;;;5052165;28;20407;-67
2022/08/08 11:08:22;;;;;;;41.53;23.83;;;31.80;93.80;;;;;;5056509;28;20391;-67
2022/08/08 11:10:59;;;;;;;45.38;22.80;;;31.70;94.10;;;;;;5045303;28;20025;-67
2022/08/08 11:13:26;;;;;;;33.67;20.80;;;31.70;93.70;;;;;;5044846;28;20027;-67
2022/08/08 11:15:55;;;;;;;30.80;19.63;;;31.60;93.40;;;;;;5047804;28;20207;-67
2022/08/08 11:18:23;;;;;;;32.72;20.92;;;31.50;93.60;;;;;;5036081;28;20100;-66
2022/08/08 11:20:50;;;;;;;37.42;23.65;;;31.50;94.10;;;;;;5046944;28;20045;-65
2022/08/08 11:23:20;;;;;;;32.25;20.13;;;31.60;94.30;;;;;;5035788;28;20022;-66
2022/08/08 11:25:50;;;;;;;37.17;20.08;;;31.50;94.00;;;;;;5046723;28;20029;-63
2022/08/08 11:28:24;;;;;;;32.15;20.15;;;31.50;94.10;;;;;;5035518;28;20365;-65
2022/08/08 11:30:56;;;;;;;32.25;21.13;;;31.60;94.30;;;;;;5046732;28;20029;-65
2022/08/08 11:33:25;;;;;;;33.15;19.90;;;31.50;93.70;;;;;;5035579;28;20037;-66
2022/08/08 11:35:52;;;;;;;36.20;21.30;;;31.40;94.40;;;;;;5047261;28;20036;-65
2022/08/08 11:38:18;;;;;;;36.10;20.65;;;31.30;94.70;;;;;;5035922;28;20472;-66
2022/08/08 11:40:46;;;;;;;33.65;20.48;;;31.20;95.10;;;;;;5047381;28;20041;-66
2022/08/08 11:43:13;;;;;;;27.88;19.35;;;31.20;94.80;;;;;;5035811;28;20400;-66
2022/08/08 11:45:41;;;;;;;30.58;18.35;;;31.20;95.20;;;;;;5047141;28;20031;-67
2022/08/08 11:48:08;;;;;;;30.58;18.88;;;31.20;95.00;;;;;;5036311;28;20029;-67
2022/08/08 11:50:36;;;;;;;43.63;24.38;;;31.10;95.50;;;;;;5048114;28;20025;-68
2022/08/08 11:53:03;;;;;;;31.52;21.05;;;31.10;95.30;;;;;;5038153;28;20506;-67
2022/08/08 11:55:30;;;;;;;39.50;26.27;;;31.00;95.60;;;;;;5047343;28;20017;-67
2022/08/08 11:58:08;;;;;;;33.80;22.98;;;31.00;95.90;;;;;;5050588;28;20029;-67
2022/08/08 12:00:45;;;;;;;46.10;30.17;;;31.00;95.90;;;;;;5048484;28;20484;-66
2022/08/08 12:03:26;;;;;;;37.17;25.70;;;31.00;96.40;;;;;;5037310;28;20029;-68
2022/08/08 12:05:54;;;;;;;32.80;24.20;;;30.90;95.90;;;;;;5048044;28;20502;-66
2022/08/08 12:08:30;;;;;;;31.13;21.55;;;30.80;96.40;;;;;;5054065;28;20206;-68
2022/08/08 12:11:01;;;;;;;30.55;18.88;;;30.80;96.30;;;;;;5054213;28;20284;-66
2022/08/08 12:13:28;;;;;;;31.07;17.60;;;30.80;96.70;;;;;;5055256;28;20501;-66
2022/08/08 12:16:06;;;;;;;27.52;16.83;;;30.80;97.20;;;;;;5053041;28;20029;-66
2022/08/08 12:19:02;;;;;;;30.13;18.83;;;30.80;96.60;;;;;;5054963;28;20035;-68
2022/08/08 12:21:33;;;;;;;27.60;16.73;;;30.80;96.80;;;;;;5052859;28;20036;-66
2022/08/08 12:24:12;;;;;;;22.48;15.90;;;30.60;97.00;;;;;;5054896;28;20407;-65
2022/08/08 12:26:49;;;;;;;27.08;16.27;;;30.70;97.20;;;;;;5053667;28;20025;-64
2022/08/08 12:29:20;;;;;;;33.08;18.67;;;30.60;97.10;;;;;;5054381;28;20110;-63
2022/08/08 12:31:47;;;;;;;33.00;18.60;;;30.60;97.20;;;;;;5054551;28;20024;-65
2022/08/08 12:34:14;;;;;;;26.63;16.60;;;30.50;97.50;;;;;;5054336;28;20395;-66
2022/08/08 12:36:43;;;;;;;25.05;17.05;;;30.60;97.70;;;;;;5053230;28;20091;-63
2022/08/08 12:39:09;;;;;;;25.77;16.67;;;30.60;97.90;;;;;;5052491;28;20040;-65
2022/08/08 12:41:36;;;;;;;31.15;17.20;;;30.60;97.70;;;;;;5052454;28;20098;-64
2022/08/08 12:44:06;;;;;;;29.60;17.70;;;30.50;97.90;;;;;;5052253;28;20017;-63
2022/08/08 12:46:33;;;;;;;33.80;17.02;;;30.40;97.70;;;;;;5051886;28;20095;-62
2022/08/08 12:49:04;;;;;;;29.63;17.00;;;30.40;98.20;;;;;;5052570;28;20025;-65
2022/08/08 12:51:42;;;;;;;21.38;15.18;;;30.30;98.60;;;;;;5053238;28;20383;-64
2022/08/08 12:54:23;;;;;;;23.73;14.98;;;30.30;98.10;;;;;;5054068;28;20031;-65
2022/08/08 12:56:49;;;;;;;26.50;15.93;;;30.30;98.80;;;;;;5054089;28;20013;-63
2022/08/08 12:59:19;;;;;;;27.80;16.55;;;30.20;98.70;;;;;;5053937;28;20434;-65
2022/08/08 13:01:56;;;;;;;27.42;17.20;;;30.20;99.00;;;;;;5054072;28;20017;-67
2022/08/08 13:04:25;;;;;;;29.88;15.77;;;30.20;98.90;;;;;;5053911;28;20059;-68